Westminster, Colorado
Current Conditions -  °F | °C
As of 11:46 AM on Thursday 30 Oct 2014 (Local Time) from KBJC Reporting Station
Scattered Clouds Scattered Clouds  
Wind Chill: 57°   Ceiling: Unl
Heat Index: 57°   Visibility: 70mi
Dew Point: 27°   Wind: 8mph
Humidity: 31%   Direction: 120°ESE
Pressure: 30.38"   Gusts: NA
Location:  39.86°N, 105.04°W
Report Text: KBJC 301746Z 12007KT 70SM FEW100 SCT200 14/M03 A3038
Loading
Personal Weather Stations






























Interactive Weather Map
Tropical Storm Tracking
New forecast layout! Learn more

10-Day Weather Forecast

Advertisements
Track Severe Weather on mobile